createdAt,value
2022-12-25T00:02:17.013Z,7.20
2022-12-25T00:04:43.746Z,7.20
2022-12-25T00:07:10.399Z,7.20
2022-12-25T00:09:37.042Z,7.20
2022-12-25T00:12:03.840Z,7.20
2022-12-25T00:14:30.442Z,7.20
2022-12-25T00:16:57.155Z,7.20
2022-12-25T00:19:23.967Z,7.30
2022-12-25T00:21:50.602Z,7.20
2022-12-25T00:24:17.325Z,7.30
2022-12-25T00:26:44.061Z,7.30
2022-12-25T00:29:13.508Z,7.30
2022-12-25T00:31:40.463Z,7.30
2022-12-25T00:34:07.257Z,7.30
2022-12-25T00:36:41.193Z,7.30
2022-12-25T00:39:08.843Z,7.30
2022-12-25T00:41:54.550Z,7.30
2022-12-25T00:44:21.436Z,7.30
2022-12-25T00:46:48.011Z,7.30
2022-12-25T00:49:14.901Z,7.40
2022-12-25T00:51:41.927Z,7.30
2022-12-25T00:54:08.952Z,7.40
2022-12-25T00:56:35.842Z,7.40
2022-12-25T00:59:02.567Z,7.40
2022-12-25T01:01:29.425Z,7.40
2022-12-25T01:03:56.318Z,7.40
2022-12-25T01:06:22.996Z,7.40
2022-12-25T01:09:09.262Z,7.40
2022-12-25T01:11:36.334Z,7.40
2022-12-25T01:14:03.824Z,7.50
2022-12-25T01:16:30.609Z,7.50
2022-12-25T01:18:57.208Z,7.50
2022-12-25T01:21:24.299Z,7.60
2022-12-25T01:23:52.444Z,7.50
2022-12-25T01:26:20.673Z,7.60
2022-12-25T01:28:47.382Z,7.60
2022-12-25T01:31:17.678Z,7.60
2022-12-25T01:33:45.239Z,7.60
2022-12-25T01:36:25.996Z,7.60
2022-12-25T01:38:53.918Z,7.70
2022-12-25T01:41:23.919Z,7.70
2022-12-25T01:44:06.093Z,7.70
2022-12-25T01:46:33.381Z,7.70
2022-12-25T01:49:08.452Z,7.70
2022-12-25T01:51:47.388Z,7.70
2022-12-25T01:54:36.144Z,7.70
2022-12-25T01:57:06.948Z,7.70
2022-12-25T01:59:33.706Z,7.80
2022-12-25T02:02:00.968Z,7.80
2022-12-25T02:04:40.145Z,7.80
2022-12-25T02:07:14.303Z,7.80
2022-12-25T02:09:41.513Z,7.80
2022-12-25T02:12:11.840Z,7.80
2022-12-25T02:14:38.757Z,7.90
2022-12-25T02:17:05.463Z,7.90
2022-12-25T02:19:35.199Z,7.90
2022-12-25T02:22:40.419Z,7.90
2022-12-25T02:25:22.290Z,7.90
2022-12-25T02:28:00.960Z,7.90
2022-12-25T02:30:33.719Z,7.90
2022-12-25T02:33:25.711Z,7.90
2022-12-25T02:35:55.597Z,7.90
2022-12-25T02:38:34.957Z,7.90
2022-12-25T02:41:10.283Z,7.90
2022-12-25T02:44:16.501Z,8.00
2022-12-25T02:47:02.464Z,7.90
2022-12-25T02:49:49.861Z,8.00
2022-12-25T02:52:39.435Z,8.00
2022-12-25T02:55:28.515Z,8.00
2022-12-25T02:58:16.824Z,8.00
2022-12-25T03:01:06.143Z,8.00
2022-12-25T03:03:56.214Z,8.00
2022-12-25T03:06:43.269Z,8.10
2022-12-25T03:09:34.624Z,8.00
2022-12-25T03:12:28.551Z,8.10
2022-12-25T03:15:14.263Z,8.10
2022-12-25T03:17:41.524Z,8.10
2022-12-25T03:20:27.613Z,8.10
2022-12-25T03:23:13.295Z,8.10
2022-12-25T03:25:59.895Z,8.20
2022-12-25T03:28:26.656Z,8.20
2022-12-25T03:31:11.780Z,8.20
2022-12-25T03:34:12.458Z,8.20
2022-12-25T03:36:58.498Z,8.30
2022-12-25T03:39:54.713Z,8.20
2022-12-25T03:42:49.631Z,8.20
2022-12-25T03:45:43.725Z,8.20
2022-12-25T03:48:13.018Z,8.20
2022-12-25T03:51:04.526Z,8.20
2022-12-25T03:54:05.027Z,8.20
2022-12-25T03:56:52.487Z,8.20
2022-12-25T03:59:40.707Z,8.10
2022-12-25T04:02:26.234Z,8.10
2022-12-25T04:05:11.591Z,8.10
2022-12-25T04:07:57.067Z,8.10
2022-12-25T04:10:42.871Z,8.00
2022-12-25T04:13:29.152Z,8.00
2022-12-25T04:16:14.695Z,8.00
2022-12-25T04:19:00.326Z,7.90
2022-12-25T04:21:45.758Z,7.90
2022-12-25T04:24:31.577Z,7.90
2022-12-25T04:27:17.009Z,7.90
2022-12-25T04:30:02.488Z,7.90
2022-12-25T04:32:47.966Z,7.90
2022-12-25T04:35:33.393Z,7.80
2022-12-25T04:38:00.127Z,7.80
2022-12-25T04:40:26.843Z,7.80
2022-12-25T04:42:53.595Z,7.80
2022-12-25T04:45:20.302Z,7.80
2022-12-25T04:47:46.985Z,7.80
2022-12-25T04:50:13.704Z,7.80
2022-12-25T04:52:41.868Z,7.80
2022-12-25T04:55:10.346Z,7.80
2022-12-25T04:57:37.797Z,7.80
2022-12-25T05:00:05.940Z,7.80
2022-12-25T05:02:33.171Z,7.80
2022-12-25T05:05:00.057Z,7.80
2022-12-25T05:07:26.846Z,7.80
2022-12-25T05:09:53.463Z,7.80
2022-12-25T05:12:20.263Z,7.80
2022-12-25T05:14:46.822Z,7.90
2022-12-25T05:17:13.821Z,7.90
2022-12-25T05:19:40.463Z,7.90
2022-12-25T05:22:07.286Z,7.90
2022-12-25T05:24:33.848Z,7.90
2022-12-25T05:27:00.641Z,7.90
2022-12-25T05:29:27.465Z,7.90
2022-12-25T05:31:54.185Z,7.90
2022-12-25T05:34:20.887Z,7.90
2022-12-25T05:36:47.454Z,7.90
2022-12-25T05:39:14.166Z,7.90
2022-12-25T05:41:41.133Z,7.90
2022-12-25T05:44:07.853Z,7.80
2022-12-25T05:46:34.602Z,7.80
2022-12-25T05:49:01.372Z,7.70
2022-12-25T05:51:28.057Z,7.70
2022-12-25T05:53:54.715Z,7.60
2022-12-25T05:56:21.439Z,7.60
2022-12-25T05:58:48.323Z,7.60
2022-12-25T06:01:21.076Z,7.60
2022-12-25T06:03:48.243Z,7.50
2022-12-25T06:06:15.146Z,7.50
2022-12-25T06:08:42.395Z,7.60
2022-12-25T06:11:11.903Z,7.60
2022-12-25T06:13:38.639Z,7.60
2022-12-25T06:16:10.414Z,7.60
2022-12-25T06:18:41.725Z,7.60
2022-12-25T06:21:11.204Z,7.50
2022-12-25T06:23:39.015Z,7.50
2022-12-25T06:26:08.201Z,7.50
2022-12-25T06:28:35.332Z,7.50
2022-12-25T06:31:10.057Z,7.40
2022-12-25T06:33:37.262Z,7.40
2022-12-25T06:36:25.333Z,7.30
2022-12-25T06:38:53.190Z,7.30
2022-12-25T06:41:24.932Z,7.20
2022-12-25T06:43:54.516Z,7.20
2022-12-25T06:46:22.626Z,7.30
2022-12-25T06:48:50.152Z,7.20
2022-12-25T06:51:18.609Z,7.30
2022-12-25T06:53:46.702Z,7.20
2022-12-25T06:56:16.658Z,7.20
2022-12-25T06:58:48.673Z,7.20
2022-12-25T07:01:20.171Z,7.20
2022-12-25T07:03:50.001Z,7.10
2022-12-25T07:06:17.055Z,7.10
2022-12-25T07:08:43.766Z,7.10
2022-12-25T07:11:10.425Z,7.20
2022-12-25T07:13:37.187Z,7.10
2022-12-25T07:16:04.881Z,7.10
2022-12-25T07:18:32.434Z,7.10
2022-12-25T07:21:02.203Z,7.10
2022-12-25T07:23:28.968Z,7.10
2022-12-25T07:25:56.292Z,7.10
2022-12-25T07:28:23.222Z,7.00
2022-12-25T07:30:50.295Z,7.10
2022-12-25T07:33:17.728Z,7.10
2022-12-25T07:35:44.549Z,7.20
2022-12-25T07:38:11.392Z,7.30
2022-12-25T07:40:38.500Z,7.60
2022-12-25T07:43:05.220Z,7.90
2022-12-25T07:45:31.925Z,8.10
2022-12-25T07:48:04.363Z,8.40
2022-12-25T07:50:32.024Z,8.70
2022-12-25T07:52:59.011Z,9.10
2022-12-25T07:55:25.847Z,9.40
2022-12-25T07:57:52.801Z,9.70
2022-12-25T08:00:19.774Z,10.00
2022-12-25T08:02:49.795Z,10.30
2022-12-25T08:05:17.121Z,10.60
2022-12-25T08:07:43.767Z,10.70
2022-12-25T08:10:10.891Z,10.80
2022-12-25T08:12:37.625Z,10.90
2022-12-25T08:15:04.583Z,11.00
2022-12-25T08:17:31.434Z,11.10
2022-12-25T08:19:58.031Z,11.30
2022-12-25T08:22:24.745Z,11.40
2022-12-25T08:24:51.420Z,11.40
2022-12-25T08:27:18.109Z,11.50
2022-12-25T08:29:45.018Z,11.60
2022-12-25T08:32:11.810Z,11.90
2022-12-25T08:34:38.585Z,12.10
2022-12-25T08:37:05.313Z,12.40
2022-12-25T08:39:32.303Z,12.70
2022-12-25T08:41:58.965Z,13.00
2022-12-25T08:44:25.785Z,13.40
2022-12-25T08:46:52.933Z,13.70
2022-12-25T08:49:19.648Z,14.10
2022-12-25T08:51:46.471Z,14.30
2022-12-25T08:54:13.133Z,14.60
2022-12-25T08:56:39.879Z,14.80
2022-12-25T08:59:06.649Z,15.00
2022-12-25T09:01:33.510Z,15.20
2022-12-25T09:04:00.441Z,15.40
2022-12-25T09:06:27.222Z,15.70
2022-12-25T09:08:53.888Z,15.80
2022-12-25T09:11:21.015Z,15.90
2022-12-25T09:13:48.687Z,16.00
2022-12-25T09:16:18.843Z,16.10
2022-12-25T09:18:45.980Z,16.20
2022-12-25T09:21:15.351Z,16.30
2022-12-25T09:23:42.564Z,16.50
2022-12-25T09:26:12.116Z,16.50
2022-12-25T09:28:38.926Z,16.50
2022-12-25T09:31:06.073Z,16.60
2022-12-25T09:33:33.062Z,16.60
2022-12-25T09:36:06.754Z,16.70
2022-12-25T09:38:34.757Z,16.70
2022-12-25T09:41:30.633Z,16.70
2022-12-25T09:44:42.289Z,16.80
2022-12-25T09:47:14.552Z,17.00
2022-12-25T09:49:54.131Z,17.00
2022-12-25T09:52:34.668Z,17.10
2022-12-25T09:55:17.903Z,17.10
2022-12-25T09:57:54.752Z,17.20
2022-12-25T10:00:24.045Z,17.30
2022-12-25T10:03:09.456Z,17.30
2022-12-25T10:06:11.569Z,17.30
2022-12-25T10:09:12.763Z,17.30
2022-12-25T10:12:31.004Z,17.20
2022-12-25T10:15:06.499Z,16.80
2022-12-25T10:17:51.169Z,16.50
2022-12-25T10:20:26.856Z,16.30
2022-12-25T10:22:59.271Z,16.10
2022-12-25T10:25:26.199Z,15.90
2022-12-25T10:27:57.064Z,15.90
2022-12-25T10:30:26.074Z,15.70
2022-12-25T10:32:54.840Z,15.60
2022-12-25T10:35:23.971Z,15.50
2022-12-25T10:38:00.893Z,15.50
2022-12-25T10:40:51.611Z,15.60
2022-12-25T10:43:32.404Z,15.50
2022-12-25T10:45:59.462Z,15.50
2022-12-25T10:48:29.269Z,15.40
2022-12-25T10:50:56.790Z,15.40
2022-12-25T10:53:25.978Z,15.40
2022-12-25T10:56:04.612Z,15.40
2022-12-25T10:58:32.475Z,15.30
2022-12-25T11:01:08.661Z,15.40
2022-12-25T11:03:38.817Z,15.40
2022-12-25T11:06:07.780Z,15.40
2022-12-25T11:08:34.935Z,15.50
2022-12-25T11:11:07.771Z,15.60
2022-12-25T11:13:39.710Z,15.70
2022-12-25T11:16:25.409Z,15.80
2022-12-25T11:18:54.139Z,15.90
2022-12-25T11:21:33.023Z,16.10
2022-12-25T11:24:05.441Z,16.20
2022-12-25T11:26:46.555Z,16.20
2022-12-25T11:29:44.834Z,16.10
2022-12-25T11:32:31.831Z,16.10
2022-12-25T11:35:01.102Z,16.10
2022-12-25T11:37:50.196Z,16.20
2022-12-25T11:40:25.154Z,16.30
2022-12-25T11:43:07.555Z,16.40
2022-12-25T11:45:39.196Z,16.50
2022-12-25T11:48:19.592Z,16.70
2022-12-25T11:50:51.922Z,16.80
2022-12-25T11:53:24.399Z,16.80
2022-12-25T11:55:55.548Z,16.80
2022-12-25T11:58:44.675Z,16.90
2022-12-25T12:01:34.539Z,17.00
2022-12-25T12:04:06.484Z,17.00
2022-12-25T12:06:44.063Z,17.00
2022-12-25T12:09:35.347Z,16.90
2022-12-25T12:12:29.502Z,16.70
2022-12-25T12:15:21.011Z,16.70
2022-12-25T12:17:47.688Z,16.70
2022-12-25T12:20:28.384Z,16.60
2022-12-25T12:22:55.705Z,16.50
2022-12-25T12:25:22.941Z,16.30
2022-12-25T12:28:04.491Z,16.30
2022-12-25T12:30:37.209Z,16.30
2022-12-25T12:33:06.647Z,16.30
2022-12-25T12:35:37.058Z,16.30
2022-12-25T12:38:19.281Z,16.10
2022-12-25T12:41:00.799Z,16.10
2022-12-25T12:43:38.931Z,16.00
2022-12-25T12:46:35.748Z,15.70
2022-12-25T12:49:16.892Z,15.50
2022-12-25T12:51:43.634Z,15.30
2022-12-25T12:54:20.829Z,15.20
2022-12-25T12:56:59.320Z,15.20
2022-12-25T12:59:31.106Z,15.20
2022-12-25T13:02:40.858Z,15.20
2022-12-25T13:05:34.966Z,15.30
2022-12-25T13:08:31.947Z,15.20
2022-12-25T13:11:31.208Z,15.10
2022-12-25T13:14:02.615Z,15.00
2022-12-25T13:16:36.888Z,14.80
2022-12-25T13:19:13.428Z,14.80
2022-12-25T13:21:40.346Z,14.80
2022-12-25T13:24:19.351Z,14.90
2022-12-25T13:26:46.176Z,15.00
2022-12-25T13:29:32.483Z,15.00
2022-12-25T13:32:01.246Z,15.00
2022-12-25T13:34:37.342Z,15.00
2022-12-25T13:37:19.303Z,15.10
2022-12-25T13:39:51.466Z,15.20
2022-12-25T13:42:22.303Z,15.10
2022-12-25T13:44:55.299Z,15.00
2022-12-25T13:47:31.439Z,14.90
2022-12-25T13:50:00.203Z,15.00
2022-12-25T13:52:34.826Z,15.10
2022-12-25T13:55:11.992Z,15.10
2022-12-25T13:57:40.650Z,15.00
2022-12-25T14:00:16.911Z,15.00
2022-12-25T14:02:45.370Z,15.10
2022-12-25T14:05:34.720Z,15.20
2022-12-25T14:08:23.558Z,15.20
2022-12-25T14:10:52.325Z,15.20
2022-12-25T14:13:26.991Z,15.20
2022-12-25T14:15:55.197Z,15.20
2022-12-25T14:18:23.908Z,15.30
2022-12-25T14:21:07.130Z,15.20
2022-12-25T14:23:45.064Z,15.10
2022-12-25T14:26:17.141Z,15.00
2022-12-25T14:28:48.836Z,14.80
2022-12-25T14:31:15.820Z,14.60
2022-12-25T14:33:43.136Z,14.30
2022-12-25T14:36:13.199Z,13.90
2022-12-25T14:38:42.447Z,13.50
2022-12-25T14:41:33.294Z,13.20
2022-12-25T14:44:06.652Z,12.90
2022-12-25T14:46:34.310Z,12.60
2022-12-25T14:49:05.262Z,12.30
2022-12-25T14:51:35.119Z,11.90
2022-12-25T14:54:06.236Z,11.60
2022-12-25T14:56:39.120Z,11.40
2022-12-25T14:59:10.070Z,11.10
2022-12-25T15:01:41.241Z,10.90
2022-12-25T15:04:11.287Z,10.60
2022-12-25T15:07:10.711Z,10.30
2022-12-25T15:09:37.712Z,10.00
2022-12-25T15:12:05.278Z,9.70
2022-12-25T15:14:32.072Z,9.60
2022-12-25T15:17:00.159Z,9.40
2022-12-25T15:19:34.870Z,9.30
2022-12-25T15:22:04.019Z,9.10
2022-12-25T15:24:30.664Z,8.90
2022-12-25T15:27:00.304Z,8.80
2022-12-25T15:30:00.178Z,8.60
2022-12-25T15:32:20.392Z,8.50
2022-12-25T15:34:49.785Z,8.40
2022-12-25T15:37:17.985Z,8.30
2022-12-25T15:39:45.266Z,8.20
2022-12-25T15:42:17.850Z,8.20
2022-12-25T15:44:45.445Z,8.10
2022-12-25T15:47:13.365Z,8.10
2022-12-25T15:49:40.786Z,8.00
2022-12-25T15:52:09.969Z,8.00
2022-12-25T15:54:36.729Z,8.00
2022-12-25T15:57:04.389Z,7.90
2022-12-25T15:59:31.666Z,7.90
2022-12-25T16:02:00.813Z,7.90
2022-12-25T16:04:28.951Z,7.80
2022-12-25T16:06:56.476Z,7.80
2022-12-25T16:09:23.214Z,7.70
2022-12-25T16:11:50.108Z,7.60
2022-12-25T16:14:17.057Z,7.60
2022-12-25T16:16:43.779Z,7.60
2022-12-25T16:19:10.521Z,7.50
2022-12-25T16:21:39.094Z,7.50
2022-12-25T16:24:06.532Z,7.50
2022-12-25T16:26:34.449Z,7.40
2022-12-25T16:29:06.758Z,7.30
2022-12-25T16:31:35.327Z,7.20
2022-12-25T16:34:02.269Z,7.10
2022-12-25T16:36:28.903Z,7.10
2022-12-25T16:38:55.673Z,7.10
2022-12-25T16:41:22.370Z,7.10
2022-12-25T16:43:49.180Z,7.20
2022-12-25T16:46:17.606Z,7.20
2022-12-25T16:48:44.839Z,7.20
2022-12-25T16:51:17.112Z,7.20
2022-12-25T16:53:44.624Z,7.20
2022-12-25T16:56:17.101Z,7.20
2022-12-25T16:58:48.169Z,7.20
2022-12-25T17:01:17.540Z,7.20
2022-12-25T17:03:45.456Z,7.20
2022-12-25T17:06:20.561Z,7.10
2022-12-25T17:08:47.680Z,7.20
2022-12-25T17:11:14.767Z,7.20
2022-12-25T17:13:41.516Z,7.20
2022-12-25T17:16:15.325Z,7.20
2022-12-25T17:18:42.374Z,7.20
2022-12-25T17:21:09.477Z,7.20
2022-12-25T17:23:39.263Z,7.20
2022-12-25T17:26:06.691Z,7.20
2022-12-25T17:28:36.750Z,7.20
2022-12-25T17:31:05.472Z,7.20
2022-12-25T17:33:34.789Z,7.20
2022-12-25T17:36:04.339Z,7.20
2022-12-25T17:38:32.207Z,7.20
2022-12-25T17:41:00.363Z,7.20
2022-12-25T17:43:27.316Z,7.20
2022-12-25T17:45:54.086Z,7.20
2022-12-25T17:48:20.738Z,7.10
2022-12-25T17:50:48.318Z,7.10
2022-12-25T17:53:15.053Z,7.00
2022-12-25T17:55:41.763Z,7.00
2022-12-25T17:58:09.271Z,7.00
2022-12-25T18:00:36.874Z,7.00
2022-12-25T18:03:10.920Z,6.90
2022-12-25T18:05:38.438Z,6.90
2022-12-25T18:08:05.326Z,6.80
2022-12-25T18:10:38.920Z,6.80
2022-12-25T18:13:05.744Z,6.70
2022-12-25T18:15:32.578Z,6.60
2022-12-25T18:17:59.657Z,6.60
2022-12-25T18:20:27.819Z,6.50
2022-12-25T18:22:54.793Z,6.40
2022-12-25T18:25:21.540Z,6.30
2022-12-25T18:27:48.201Z,6.20
2022-12-25T18:30:15.015Z,6.10
2022-12-25T18:32:43.771Z,6.00
2022-12-25T18:35:10.676Z,6.00
2022-12-25T18:37:40.281Z,5.90
2022-12-25T18:40:07.905Z,5.90
2022-12-25T18:42:40.892Z,5.80
2022-12-25T18:45:12.434Z,5.80
2022-12-25T18:47:39.409Z,5.70
2022-12-25T18:50:07.939Z,5.60
2022-12-25T18:52:49.352Z,5.60
2022-12-25T18:55:18.297Z,5.60
2022-12-25T18:57:44.891Z,5.60
2022-12-25T19:00:11.939Z,5.60
2022-12-25T19:02:38.820Z,5.60
2022-12-25T19:05:05.978Z,5.70
2022-12-25T19:07:32.951Z,5.70
2022-12-25T19:09:59.713Z,5.70
2022-12-25T19:12:26.578Z,5.70
2022-12-25T19:14:53.415Z,5.70
2022-12-25T19:17:20.151Z,5.70
2022-12-25T19:19:47.115Z,5.70
2022-12-25T19:22:13.827Z,5.70
2022-12-25T19:24:40.933Z,5.70
2022-12-25T19:27:07.648Z,5.70
2022-12-25T19:29:34.350Z,5.70
2022-12-25T19:32:01.174Z,5.60
2022-12-25T19:34:28.075Z,5.70
2022-12-25T19:36:54.694Z,5.60
2022-12-25T19:39:21.363Z,5.60
2022-12-25T19:41:48.369Z,5.60
2022-12-25T19:44:15.613Z,5.60
2022-12-25T19:46:42.806Z,5.60
2022-12-25T19:49:13.628Z,5.60
2022-12-25T19:51:46.086Z,5.60
2022-12-25T19:54:18.765Z,5.60
2022-12-25T19:56:46.163Z,5.60
2022-12-25T19:59:14.427Z,5.60
2022-12-25T20:01:41.720Z,5.50
2022-12-25T20:04:09.791Z,5.50
2022-12-25T20:06:38.869Z,5.50
2022-12-25T20:09:10.390Z,5.50
2022-12-25T20:11:38.076Z,5.50
2022-12-25T20:14:06.619Z,5.50
2022-12-25T20:16:35.823Z,5.50
2022-12-25T20:19:02.658Z,5.50
2022-12-25T20:21:29.987Z,5.60
2022-12-25T20:23:57.467Z,5.60
2022-12-25T20:26:27.191Z,5.60
2022-12-25T20:28:54.412Z,5.60
2022-12-25T20:31:27.429Z,5.60
2022-12-25T20:33:56.183Z,5.60
2022-12-25T20:36:23.207Z,5.50
2022-12-25T20:38:50.134Z,5.50
2022-12-25T20:41:28.449Z,5.50
2022-12-25T20:43:56.744Z,5.50
2022-12-25T20:46:24.614Z,5.50
2022-12-25T20:48:52.652Z,5.50
2022-12-25T20:51:21.865Z,5.50
2022-12-25T20:53:49.495Z,5.40
2022-12-25T20:56:17.749Z,5.40
2022-12-25T20:58:44.602Z,5.40
2022-12-25T21:01:12.528Z,5.40
2022-12-25T21:03:39.552Z,5.50
2022-12-25T21:06:07.665Z,5.40
2022-12-25T21:08:34.780Z,5.40
2022-12-25T21:11:02.551Z,5.40
2022-12-25T21:13:41.443Z,5.40
2022-12-25T21:16:15.458Z,5.40
2022-12-25T21:18:42.584Z,5.50
2022-12-25T21:21:09.352Z,5.50
2022-12-25T21:23:36.929Z,5.50
2022-12-25T21:26:11.349Z,5.50
2022-12-25T21:28:38.243Z,5.50
2022-12-25T21:31:06.362Z,5.50
2022-12-25T21:33:52.188Z,5.50
2022-12-25T21:36:30.386Z,5.60
2022-12-25T21:39:06.077Z,5.50
2022-12-25T21:41:34.763Z,5.60
2022-12-25T21:44:02.194Z,5.60
2022-12-25T21:46:29.455Z,5.60
2022-12-25T21:48:56.929Z,5.60
2022-12-25T21:51:47.182Z,5.60
2022-12-25T21:54:15.141Z,5.60
2022-12-25T21:56:45.280Z,5.60
2022-12-25T21:59:20.956Z,5.60
2022-12-25T22:01:49.040Z,5.60
2022-12-25T22:04:17.574Z,5.60
2022-12-25T22:07:03.302Z,5.60
2022-12-25T22:09:30.164Z,5.50
2022-12-25T22:12:15.843Z,5.50
2022-12-25T22:14:54.723Z,5.60
2022-12-25T22:17:50.258Z,5.60
2022-12-25T22:20:23.464Z,5.60
2022-12-25T22:22:51.095Z,5.60
2022-12-25T22:25:18.913Z,5.60
2022-12-25T22:27:47.026Z,5.60
2022-12-25T22:30:17.182Z,5.70
2022-12-25T22:32:44.621Z,5.70
2022-12-25T22:35:12.224Z,5.70
2022-12-25T22:37:40.236Z,5.70
2022-12-25T22:40:08.048Z,5.70
2022-12-25T22:42:35.155Z,5.70
2022-12-25T22:45:02.354Z,5.70
2022-12-25T22:47:29.073Z,5.70
2022-12-25T22:49:55.765Z,5.70
2022-12-25T22:52:22.662Z,5.70
2022-12-25T22:54:49.369Z,5.70
2022-12-25T22:57:16.043Z,5.70
2022-12-25T22:59:42.893Z,5.70
2022-12-25T23:02:09.577Z,5.70
2022-12-25T23:04:36.533Z,5.70
2022-12-25T23:07:03.929Z,5.70
2022-12-25T23:09:30.767Z,5.70
2022-12-25T23:11:58.168Z,5.70
2022-12-25T23:14:41.621Z,5.70
2022-12-25T23:17:32.073Z,5.70
2022-12-25T23:20:19.088Z,5.70
2022-12-25T23:23:05.273Z,5.70
2022-12-25T23:25:52.797Z,5.70
2022-12-25T23:28:39.794Z,5.70
2022-12-25T23:31:07.245Z,5.70
2022-12-25T23:33:34.037Z,5.80
2022-12-25T23:36:00.781Z,5.70
2022-12-25T23:38:27.438Z,5.80
2022-12-25T23:40:54.128Z,5.70
2022-12-25T23:43:21.056Z,5.80
2022-12-25T23:45:47.782Z,5.70
2022-12-25T23:48:14.416Z,5.80
2022-12-25T23:50:41.030Z,5.70
2022-12-25T23:53:07.718Z,5.70
2022-12-25T23:55:34.540Z,5.70
2022-12-25T23:58:01.234Z,5.70
